Roxobel, North Carolina
Current Conditions -  °F | °C
As of 11:15 AM on Monday 22 Dec 2014 (Local Time) from KASJ Reporting Station
Drizzle Drizzle  
Wind Chill: 35°   Ceiling: 700
Heat Index: 41°   Visibility: 7mi
Dew Point: 40°   Wind: 10mph
Humidity: 95%   Direction: 10°N
Pressure: 30.11"   Gusts: NA
Location:  36.2°N, 77.25°W
Report Text: KASJ 221615Z AUTO 01009KT 7SM -DZ OVC007 05/05 A3011 RMK AO2 T00520045
Loading
Personal Weather Stations






























Interactive Weather Map New forecast layout! Learn more

10-Day Weather Forecast

Advertisements
Track Severe Weather on mobile